Time;durP1;ratioP1;P1;durP2;ratioP2;P2;SDS_P1;SDS_P2;PMS_P1;PMS_P2;Temp;Humidity;BMP_temperature;BMP_pressure;BME280_temperature;BME280_humidity;BME280_pressure;Samples;Min_cycle;Max_cycle;Signal;HPM_P1;HPM_P2
2022/06/07 00:00:15;;;;;;;1.10;1.00;;;;;22.20;100259.00;;;;2078923;28;20693;-57
2022/06/07 00:01:15;;;;;;;1.20;1.10;;;;;22.30;100266.00;;;;2078070;28;20962;-57
2022/06/07 00:02:19;;;;;;;1.10;1.00;;;;;22.30;100263.00;;;;2077900;28;20224;-57
2022/06/07 00:03:20;;;;;;;1.15;1.05;;;;;22.20;100264.00;;;;2078803;28;20582;-57
2022/06/07 00:04:20;;;;;;;1.33;1.23;;;;;22.30;100254.00;;;;2078539;28;20213;-57
2022/06/07 00:05:21;;;;;;;1.27;1.17;;;;;22.30;100255.00;;;;2078252;28;20456;-58
2022/06/07 00:06:21;;;;;;;1.60;1.33;;;;;22.30;100253.00;;;;2078248;28;20209;-57
2022/06/07 00:07:22;;;;;;;1.30;1.20;;;;;22.30;100250.00;;;;2066771;28;20621;-58
2022/06/07 00:08:23;;;;;;;1.27;1.17;;;;;22.30;100256.00;;;;2069880;28;20217;-57
2022/06/07 00:09:23;;;;;;;1.30;1.20;;;;;22.30;100257.00;;;;2061746;28;20458;-57
2022/06/07 00:10:24;;;;;;;1.20;1.10;;;;;22.30;100253.00;;;;2061857;28;20545;-57
2022/06/07 00:11:24;;;;;;;1.60;1.43;;;;;22.30;100258.00;;;;2069687;28;20218;-57
2022/06/07 00:12:25;;;;;;;1.30;1.20;;;;;22.30;100251.00;;;;2070650;28;20222;-57
2022/06/07 00:13:25;;;;;;;1.30;1.20;;;;;22.30;100250.00;;;;2070450;28;20222;-57
2022/06/07 00:14:26;;;;;;;1.50;1.40;;;;;22.20;100253.00;;;;2070427;28;20335;-58
2022/06/07 00:15:26;;;;;;;1.30;1.20;;;;;22.30;100254.00;;;;2069515;28;20246;-58
2022/06/07 00:16:26;;;;;;;1.20;1.10;;;;;22.30;100250.00;;;;2070189;28;20260;-57
2022/06/07 00:17:27;;;;;;;1.43;1.33;;;;;22.30;100250.00;;;;2070410;28;20258;-58
2022/06/07 00:18:27;;;;;;;1.33;1.23;;;;;22.30;100251.00;;;;2070337;28;20229;-57
2022/06/07 00:19:27;;;;;;;1.30;1.20;;;;;22.30;100250.00;;;;2067704;28;20229;-58
2022/06/07 00:20:28;;;;;;;1.37;1.27;;;;;22.30;100252.00;;;;2070394;28;20221;-57
2022/06/07 00:21:29;;;;;;;1.50;1.30;;;;;22.30;100242.00;;;;2070595;28;20285;-57
2022/06/07 00:22:29;;;;;;;1.57;1.30;;;;;22.30;100250.00;;;;2070482;28;20573;-57
2022/06/07 00:23:30;;;;;;;1.40;1.30;;;;;22.30;100253.00;;;;2070574;28;20460;-57
2022/06/07 00:24:31;;;;;;;1.23;1.13;;;;;22.30;100246.00;;;;2069661;28;20272;-57
2022/06/07 00:25:31;;;;;;;1.50;1.20;;;;;22.30;100245.00;;;;2069442;28;20464;-57
2022/06/07 00:26:32;;;;;;;1.30;1.20;;;;;22.20;100249.00;;;;2070504;28;20237;-57
2022/06/07 00:27:32;;;;;;;1.27;1.17;;;;;22.30;100249.00;;;;2070209;28;20253;-57
2022/06/07 00:28:33;;;;;;;1.40;1.30;;;;;22.20;100246.00;;;;2070033;28;20217;-57
2022/06/07 00:29:33;;;;;;;1.20;1.10;;;;;22.30;100245.00;;;;2070184;28;20229;-57
2022/06/07 00:30:33;;;;;;;1.17;1.07;;;;;22.20;100247.00;;;;2069741;28;20222;-57
2022/06/07 00:31:34;;;;;;;1.53;1.20;;;;;22.30;100238.00;;;;2070487;28;20245;-57
2022/06/07 00:32:35;;;;;;;1.95;1.30;;;;;22.30;100237.00;;;;2069748;28;20319;-57
2022/06/07 00:33:35;;;;;;;1.40;1.30;;;;;22.30;100238.00;;;;2069050;28;20698;-57
2022/06/07 00:34:35;;;;;;;1.33;1.23;;;;;22.20;100239.00;;;;2061340;28;20237;-58
2022/06/07 00:35:36;;;;;;;1.53;1.43;;;;;22.20;100241.00;;;;2061154;28;20396;-57
2022/06/07 00:36:36;;;;;;;1.30;1.20;;;;;22.20;100239.00;;;;2077506;28;20267;-57
2022/06/07 00:37:36;;;;;;;1.20;1.10;;;;;22.30;100257.00;;;;2061630;28;20223;-57
2022/06/07 00:38:37;;;;;;;1.20;1.03;;;;;22.20;100237.00;;;;2053764;28;20770;-57
2022/06/07 00:39:37;;;;;;;1.40;1.10;;;;;22.20;100233.00;;;;2069705;28;20674;-57
2022/06/07 00:40:37;;;;;;;2.00;1.30;;;;;22.20;100232.00;;;;2070198;28;20260;-57
2022/06/07 00:41:38;;;;;;;1.53;1.20;;;;;22.20;100233.00;;;;2070393;28;20268;-58
2022/06/07 00:42:38;;;;;;;1.40;1.30;;;;;22.20;100236.00;;;;2061786;28;20294;-57
2022/06/07 00:43:40;;;;;;;1.50;1.40;;;;;22.20;100234.00;;;;2061294;28;20707;-59
2022/06/07 00:44:43;;;;;;;1.20;1.10;;;;;22.20;100235.00;;;;2069627;28;20217;-57
2022/06/07 00:45:43;;;;;;;1.40;1.30;;;;;22.20;100228.00;;;;2052902;28;20211;-57
2022/06/07 00:46:45;;;;;;;1.13;1.03;;;;;22.20;100232.00;;;;2061984;28;20207;-58
2022/06/07 00:47:46;;;;;;;1.30;1.20;;;;;22.20;100229.00;;;;2068992;28;20210;-58
2022/06/07 00:48:46;;;;;;;1.40;1.30;;;;;22.20;100229.00;;;;2070192;28;20225;-57
2022/06/07 00:49:49;;;;;;;1.53;1.30;;;;;22.30;100220.00;;;;2069582;28;20229;-57
2022/06/07 00:50:59;;;;;;;1.60;1.50;;;;;22.30;100236.00;;;;2061952;28;20265;-57
2022/06/07 00:51:59;;;;;;;1.30;1.10;;;;;22.10;100221.00;;;;2059963;28;20473;-57
2022/06/07 00:53:00;;;;;;;1.60;1.50;;;;;22.30;100224.00;;;;2053724;28;20250;-57
2022/06/07 00:54:00;;;;;;;1.50;1.40;;;;;22.20;100230.00;;;;2069687;28;20225;-57
2022/06/07 00:55:01;;;;;;;2.10;1.20;;;;;22.20;100230.00;;;;2070094;28;20304;-57
2022/06/07 00:56:01;;;;;;;1.60;1.50;;;;;22.30;100231.00;;;;2069331;28;20355;-57
2022/06/07 00:57:02;;;;;;;1.33;1.20;;;;;22.20;100223.00;;;;2062845;28;20237;-58
2022/06/07 00:58:02;;;;;;;1.20;1.10;;;;;22.20;100226.00;;;;2070352;28;20308;-57
2022/06/07 00:59:03;;;;;;;1.40;1.20;;;;;22.30;100220.00;;;;2070000;28;20225;-57
2022/06/07 01:00:10;;;;;;;1.30;1.20;;;;;22.30;100214.00;;;;2070455;28;20313;-57
2022/06/07 01:01:11;;;;;;;1.27;1.17;;;;;22.30;100227.00;;;;2069671;28;20222;-59
2022/06/07 01:02:11;;;;;;;1.40;1.30;;;;;22.20;100228.00;;;;2068502;28;21679;-64
2022/06/07 01:03:12;;;;;;;1.20;1.10;;;;;22.20;100220.00;;;;2069383;28;20213;-63
2022/06/07 01:04:12;;;;;;;1.33;1.23;;;;;22.20;100223.00;;;;2061137;28;20734;-58
2022/06/07 01:05:12;;;;;;;1.30;1.20;;;;;22.20;100228.00;;;;2061285;28;20215;-55
2022/06/07 01:10:44;;;;;;;1.30;1.20;;;;;22.30;100225.00;;;;2052078;28;20599;-58
2022/06/07 01:11:44;;;;;;;1.20;1.10;;;;;22.30;100219.00;;;;2057303;28;20710;-55
2022/06/07 01:12:45;;;;;;;1.43;1.33;;;;;22.30;100224.00;;;;2061125;28;20221;-57
2022/06/07 01:13:45;;;;;;;1.00;0.90;;;;;22.20;100219.00;;;;2061038;28;20210;-56
2022/06/07 01:14:45;;;;;;;1.10;1.00;;;;;22.20;100224.00;;;;2060881;28;20214;-57
2022/06/07 01:15:46;;;;;;;1.30;1.20;;;;;22.20;100225.00;;;;2069742;28;20674;-58
2022/06/07 01:16:46;;;;;;;1.10;1.00;;;;;22.20;100230.00;;;;2070200;28;20237;-54
2022/06/07 01:17:47;;;;;;;1.50;1.40;;;;;22.20;100225.00;;;;2070281;28;20249;-56
2022/06/07 01:18:47;;;;;;;1.10;1.00;;;;;22.20;100219.00;;;;2070128;28;20710;-58
2022/06/07 01:19:47;;;;;;;1.20;1.10;;;;;22.20;100224.00;;;;2069025;28;20254;-57
2022/06/07 01:21:14;;;;;;;1.40;1.30;;;;;22.20;100223.00;;;;2070082;28;20221;-55
2022/06/07 01:22:15;;;;;;;2.40;1.65;;;;;22.20;100220.00;;;;2069343;28;20229;-60
2022/06/07 01:23:15;;;;;;;1.20;1.10;;;;;22.20;100217.00;;;;2067401;28;20209;-58
2022/06/07 01:24:16;;;;;;;1.80;1.33;;;;;22.30;100220.00;;;;2069252;28;21340;-58
2022/06/07 01:25:16;;;;;;;1.50;1.37;;;;;22.20;100212.00;;;;2069023;28;21060;-58
2022/06/07 01:26:16;;;;;;;1.27;1.10;;;;;22.20;100217.00;;;;2069365;28;20874;-55
2022/06/07 01:27:17;;;;;;;1.40;1.30;;;;;22.30;100212.00;;;;2070116;28;20218;-54
2022/06/07 01:28:17;;;;;;;1.30;1.20;;;;;22.20;100220.00;;;;2069235;28;20578;-57
2022/06/07 01:29:17;;;;;;;1.30;1.10;;;;;22.30;100216.00;;;;2069383;28;20309;-58
2022/06/07 01:30:18;;;;;;;1.20;1.10;;;;;22.30;100208.00;;;;2061538;28;20210;-58
2022/06/07 01:31:19;;;;;;;1.60;1.50;;;;;22.20;100212.00;;;;2061558;28;20214;-58
2022/06/07 01:32:19;;;;;;;1.20;1.10;;;;;22.20;100217.00;;;;2069396;28;20230;-58
2022/06/07 01:33:19;;;;;;;1.17;1.07;;;;;22.20;100218.00;;;;2070216;28;20210;-56
2022/06/07 01:34:20;;;;;;;1.50;1.40;;;;;22.30;100215.00;;;;2069065;28;20225;-57
2022/06/07 01:35:20;;;;;;;2.23;1.17;;;;;22.20;100204.00;;;;2069167;28;20206;-58
2022/06/07 01:36:20;;;;;;;1.33;1.23;;;;;22.20;100211.00;;;;2069886;28;20218;-58
2022/06/07 01:37:21;;;;;;;1.20;1.10;;;;;22.20;100207.00;;;;2069183;28;20285;-59
2022/06/07 01:38:21;;;;;;;1.33;1.23;;;;;22.20;100212.00;;;;2061286;28;20289;-58
2022/06/07 01:42:00;;;;;;;1.45;1.35;;;;;22.20;100215.00;;;;2067781;28;20256;-58
2022/06/07 01:43:01;;;;;;;1.77;1.10;;;;;22.20;100209.00;;;;2065340;28;21038;-58
2022/06/07 01:44:01;;;;;;;1.30;1.20;;;;;22.20;100207.00;;;;2071154;28;20202;-58
2022/06/07 01:45:01;;;;;;;1.13;1.03;;;;;22.20;100211.00;;;;2071184;28;20210;-58
2022/06/07 01:46:03;;;;;;;1.60;1.43;;;;;22.20;100207.00;;;;2071401;28;20206;-58
2022/06/07 01:47:04;;;;;;;1.15;1.00;;;;;22.20;100204.00;;;;2071416;28;20213;-59
2022/06/07 01:48:04;;;;;;;1.10;1.00;;;;;22.20;100199.00;;;;2071760;28;20221;-56
2022/06/07 01:49:05;;;;;;;1.30;1.20;;;;;22.20;100204.00;;;;2075834;28;20213;-58
2022/06/07 01:50:05;;;;;;;1.20;1.10;;;;;22.20;100202.00;;;;2079980;28;20953;-58
2022/06/07 01:51:07;;;;;;;1.43;1.07;;;;;22.20;100204.00;;;;2079817;28;20893;-58
2022/06/07 01:52:08;;;;;;;1.35;1.25;;;;;22.30;100200.00;;;;2079346;28;20583;-55
2022/06/07 01:53:09;;;;;;;1.10;1.00;;;;;22.20;100206.00;;;;2079172;28;20756;-55
2022/06/07 01:54:10;;;;;;;1.20;0.88;;;;;22.20;100195.00;;;;2080110;28;20228;-58
2022/06/07 01:55:11;;;;;;;1.80;1.45;;;;;22.20;100193.00;;;;2079579;28;21014;-57
2022/06/07 01:56:13;;;;;;;1.27;1.17;;;;;22.20;100195.00;;;;2079023;28;20221;-58
2022/06/07 01:57:13;;;;;;;1.38;1.10;;;;;22.20;100199.00;;;;2070909;28;20293;-57
2022/06/07 01:58:13;;;;;;;1.20;1.10;;;;;22.20;100197.00;;;;2071069;28;20221;-58
2022/06/07 01:59:14;;;;;;;1.17;1.07;;;;;22.20;100195.00;;;;2078565;28;20241;-58
2022/06/07 02:00:14;;;;;;;1.30;1.17;;;;;22.20;100186.00;;;;2079773;28;20279;-59
2022/06/07 02:01:15;;;;;;;1.20;1.10;;;;;22.20;100189.00;;;;2070879;28;20217;-56
2022/06/07 02:02:15;;;;;;;1.10;1.00;;;;;22.20;100195.00;;;;2070757;28;20240;-58
2022/06/07 02:03:16;;;;;;;1.53;1.40;;;;;22.20;100194.00;;;;2079889;28;20239;-58
2022/06/07 02:04:16;;;;;;;1.40;0.90;;;;;22.20;100190.00;;;;2072336;28;20214;-58
2022/06/07 02:05:17;;;;;;;1.50;1.40;;;;;22.20;100181.00;;;;2070725;28;20229;-58
2022/06/07 02:06:17;;;;;;;1.40;1.07;;;;;22.20;100186.00;;;;2070667;28;20765;-56
2022/06/07 02:07:21;;;;;;;1.57;1.20;;;;;22.20;100187.00;;;;2070743;28;20309;-57
2022/06/07 02:08:22;;;;;;;1.67;1.50;;;;;22.20;100170.00;;;;2062458;28;20458;-63
2022/06/07 02:09:22;;;;;;;1.37;1.27;;;;;22.20;100187.00;;;;2059115;28;20302;-60
2022/06/07 02:10:22;;;;;;;1.83;1.40;;;;;22.20;100178.00;;;;2062611;28;20296;-60
2022/06/07 02:11:24;;;;;;;1.17;1.03;;;;;22.20;100186.00;;;;2070709;28;20209;-60
2022/06/07 02:12:25;;;;;;;1.17;1.08;;;;;22.20;100183.00;;;;2070568;28;20246;-58
2022/06/07 02:13:25;;;;;;;1.37;1.10;;;;;22.20;100185.00;;;;2071437;28;20245;-58
2022/06/07 02:14:26;;;;;;;1.63;1.30;;;;;22.20;100180.00;;;;2079417;28;20363;-55
2022/06/07 02:15:27;;;;;;;1.20;1.10;;;;;22.20;100177.00;;;;2078355;28;20218;-57
2022/06/07 02:16:27;;;;;;;1.07;0.97;;;;;22.20;100171.00;;;;2078889;28;20241;-57
2022/06/07 02:17:27;;;;;;;1.20;1.03;;;;;22.20;100175.00;;;;2070636;28;20948;-55
2022/06/07 02:18:28;;;;;;;1.10;1.00;;;;;22.20;100180.00;;;;2077243;28;20217;-56
2022/06/07 02:19:28;;;;;;;1.37;1.20;;;;;22.20;100177.00;;;;2078798;28;20807;-56
2022/06/07 02:20:28;;;;;;;1.20;0.87;;;;;22.20;100175.00;;;;2078983;28;20225;-60
2022/06/07 02:21:29;;;;;;;1.93;1.23;;;;;22.20;100170.00;;;;2079395;28;20256;-58
2022/06/07 02:22:29;;;;;;;1.43;1.33;;;;;22.20;100174.00;;;;2079563;28;20252;-58
2022/06/07 02:23:30;;;;;;;1.13;1.03;;;;;22.20;100178.00;;;;2079612;28;20221;-60
2022/06/07 02:24:31;;;;;;;1.98;1.30;;;;;22.20;100174.00;;;;2079294;28;20236;-58
2022/06/07 02:25:35;;;;;;;1.40;1.13;;;;;22.20;100168.00;;;;2078795;28;20832;-55
2022/06/07 02:26:44;;;;;;;1.23;1.10;;;;;22.20;100175.00;;;;2078697;28;20709;-58
2022/06/07 02:27:44;;;;;;;1.13;1.05;;;;;22.20;100169.00;;;;2072073;28;20581;-55
2022/06/07 02:28:48;;;;;;;1.33;1.03;;;;;22.20;100178.00;;;;2078828;28;20232;-57
2022/06/07 02:29:49;;;;;;;1.35;1.10;;;;;22.20;100170.00;;;;2078846;28;20753;-55
2022/06/07 02:30:50;;;;;;;1.73;1.00;;;;;22.20;100177.00;;;;2071440;28;20222;-58
2022/06/07 02:31:56;;;;;;;1.27;1.17;;;;;22.20;100176.00;;;;2078699;28;20275;-58
2022/06/07 02:32:56;;;;;;;1.23;1.05;;;;;22.20;100174.00;;;;2079352;28;20240;-55
2022/06/07 02:33:57;;;;;;;1.30;1.17;;;;;22.20;100174.00;;;;2079427;28;20229;-56
2022/06/07 02:34:58;;;;;;;1.30;1.20;;;;;22.20;100118.00;;;;2078817;28;20585;-56
2022/06/07 02:35:59;;;;;;;1.40;1.30;;;;;22.20;100174.00;;;;2063518;28;20214;-61
2022/06/07 02:36:59;;;;;;;1.30;1.20;;;;;22.20;100166.00;;;;2063071;28;20233;-56
2022/06/07 02:38:00;;;;;;;1.57;1.23;;;;;22.20;100166.00;;;;2067128;28;20223;-55
2022/06/07 02:39:02;;;;;;;1.55;1.45;;;;;22.20;100171.00;;;;2075225;28;20247;-59
2022/06/07 02:40:03;;;;;;;1.13;0.90;;;;;22.20;100163.00;;;;2080286;28;20689;-56
2022/06/07 02:41:04;;;;;;;1.13;1.03;;;;;22.20;100166.00;;;;2073900;28;20218;-59
2022/06/07 02:42:05;;;;;;;1.40;1.30;;;;;22.20;100166.00;;;;2069150;28;20268;-55
2022/06/07 02:43:06;;;;;;;1.35;1.10;;;;;22.20;100170.00;;;;2067915;28;20241;-56
2022/06/07 02:44:06;;;;;;;0.97;0.87;;;;;22.20;100166.00;;;;2079678;28;20347;-57
2022/06/07 02:45:07;;;;;;;1.27;1.20;;;;;22.20;100160.00;;;;2073975;28;20217;-56
2022/06/07 02:46:07;;;;;;;1.20;1.10;;;;;22.20;100172.00;;;;2075006;28;20220;-59
2022/06/07 02:47:07;;;;;;;1.33;1.23;;;;;22.20;100161.00;;;;2079613;28;20313;-58
2022/06/07 02:48:09;;;;;;;1.20;1.10;;;;;22.20;100164.00;;;;2072639;28;20214;-56
2022/06/07 02:49:10;;;;;;;2.45;1.30;;;;;22.20;100164.00;;;;2065230;28;20734;-56
2022/06/07 02:50:10;;;;;;;1.00;0.93;;;;;22.20;100165.00;;;;2074650;28;20213;-61
2022/06/07 02:51:11;;;;;;;1.50;1.40;;;;;22.20;100159.00;;;;2079473;28;20397;-55
2022/06/07 02:52:11;;;;;;;1.23;1.13;;;;;22.20;100161.00;;;;2071701;28;20220;-55
2022/06/07 02:53:13;;;;;;;1.43;1.20;;;;;22.20;100165.00;;;;2077071;28;20216;-62
2022/06/07 02:54:13;;;;;;;1.25;1.15;;;;;22.20;100163.00;;;;2067710;28;20255;-56
2022/06/07 02:55:14;;;;;;;1.57;1.47;;;;;22.20;100165.00;;;;2075206;28;20221;-60
2022/06/07 02:56:14;;;;;;;1.20;1.10;;;;;22.20;100166.00;;;;2066618;28;20686;-56
2022/06/07 02:57:15;;;;;;;1.40;1.30;;;;;22.20;100162.00;;;;2063062;28;20220;-57
2022/06/07 02:58:15;;;;;;;2.23;1.40;;;;;22.20;100166.00;;;;2078138;28;20213;-55
2022/06/07 02:59:15;;;;;;;1.40;1.30;;;;;22.20;100171.00;;;;2079207;28;20209;-56
2022/06/07 03:00:16;;;;;;;1.30;1.20;;;;;22.20;100163.00;;;;2075306;28;20866;-59
2022/06/07 03:01:16;;;;;;;1.30;1.20;;;;;22.20;100169.00;;;;2067483;28;20211;-58
2022/06/07 03:02:17;;;;;;;1.40;1.13;;;;;22.20;100169.00;;;;2073048;28;20461;-61
2022/06/07 03:03:17;;;;;;;1.27;1.10;;;;;22.20;100176.00;;;;2079130;28;20218;-57
2022/06/07 03:04:18;;;;;;;2.00;1.37;;;;;22.20;100169.00;;;;2066873;28;20695;-59
2022/06/07 03:05:18;;;;;;;1.30;1.20;;;;;22.20;100171.00;;;;2068222;28;20221;-60
2022/06/07 03:06:18;;;;;;;1.40;1.30;;;;;22.20;100170.00;;;;2078261;28;20194;-58
2022/06/07 03:07:19;;;;;;;1.40;1.20;;;;;22.20;100167.00;;;;2072163;28;20206;-56
2022/06/07 03:08:20;;;;;;;1.20;1.10;;;;;22.20;100151.00;;;;2074894;28;20240;-56
2022/06/07 03:09:20;;;;;;;1.40;1.20;;;;;22.20;100170.00;;;;2070877;28;20214;-59
2022/06/07 03:10:21;;;;;;;2.60;1.40;;;;;22.20;100176.00;;;;2073651;28;20666;-58
2022/06/07 03:11:21;;;;;;;1.10;1.00;;;;;22.20;100172.00;;;;2079220;28;20668;-58
2022/06/07 03:12:21;;;;;;;1.50;1.03;;;;;22.20;100177.00;;;;2066939;28;20218;-57
2022/06/07 03:13:22;;;;;;;1.20;1.10;;;;;22.20;100177.00;;;;2071226;28;20877;-55
2022/06/07 03:14:22;;;;;;;1.17;1.07;;;;;22.20;100170.00;;;;2071764;28;20214;-55
2022/06/07 03:15:22;;;;;;;1.30;1.20;;;;;22.20;100181.00;;;;2077449;28;20221;-62
2022/06/07 03:16:23;;;;;;;1.50;1.30;;;;;22.20;100175.00;;;;2063387;28;20582;-58
2022/06/07 03:17:24;;;;;;;1.30;1.20;;;;;22.20;100167.00;;;;2071015;28;20364;-57
2022/06/07 03:18:24;;;;;;;1.37;1.27;;;;;22.20;100181.00;;;;2073226;28;20214;-56
2022/06/07 03:19:28;;;;;;;2.13;1.20;;;;;22.20;100174.00;;;;2070817;28;20457;-60
2022/06/07 03:20:28;;;;;;;1.17;1.08;;;;;22.20;100175.00;;;;2067162;28;20645;-57
2022/06/07 03:21:29;;;;;;;1.30;1.20;;;;;22.20;100174.00;;;;2063579;28;20304;-58
2022/06/07 03:22:29;;;;;;;1.53;1.30;;;;;22.20;100183.00;;;;2070578;28;20229;-58
2022/06/07 03:23:30;;;;;;;1.50;1.40;;;;;22.20;100171.00;;;;2078592;28;20222;-56
2022/06/07 03:24:31;;;;;;;1.35;1.25;;;;;22.20;100171.00;;;;2079127;28;20210;-59
2022/06/07 03:25:31;;;;;;;1.60;1.20;;;;;22.20;100177.00;;;;2076357;28;20220;-58
2022/06/07 03:26:32;;;;;;;1.20;1.07;;;;;22.20;100174.00;;;;2078930;28;20209;-57
2022/06/07 03:27:33;;;;;;;1.90;1.30;;;;;22.20;100178.00;;;;2075413;28;20766;-57
2022/06/07 03:28:33;;;;;;;1.40;1.20;;;;;22.20;100174.00;;;;2075135;28;20224;-60
2022/06/07 03:29:34;;;;;;;2.00;1.37;;;;;22.20;100172.00;;;;2066882;28;20505;-58
2022/06/07 03:30:34;;;;;;;1.30;1.20;;;;;22.20;100176.00;;;;2076849;28;20225;-56
2022/06/07 03:31:35;;;;;;;1.33;1.23;;;;;22.20;100179.00;;;;2074477;28;20718;-55
2022/06/07 03:32:35;;;;;;;1.67;1.20;;;;;22.20;100182.00;;;;2074635;28;20713;-55
2022/06/07 03:33:35;;;;;;;1.17;1.07;;;;;22.20;100187.00;;;;2071575;28;20733;-60
2022/06/07 03:34:37;;;;;;;1.37;1.27;;;;;22.20;100179.00;;;;2074738;28;20244;-60
2022/06/07 03:35:38;;;;;;;1.88;1.30;;;;;22.20;100186.00;;;;2074924;28;20299;-60
2022/06/07 03:36:38;;;;;;;1.30;1.20;;;;;22.20;100192.00;;;;2078442;28;20621;-59
2022/06/07 03:37:38;;;;;;;1.17;1.07;;;;;22.20;100163.00;;;;2070937;28;20218;-56
2022/06/07 03:38:39;;;;;;;1.10;0.97;;;;;22.10;100184.00;;;;2075044;28;20276;-56
2022/06/07 03:39:40;;;;;;;1.10;1.00;;;;;22.20;100180.00;;;;2067994;28;20222;-61
2022/06/07 03:40:43;;;;;;;1.70;1.30;;;;;22.10;100181.00;;;;2066661;28;20297;-58
2022/06/07 03:41:43;;;;;;;1.30;1.05;;;;;22.10;100171.00;;;;2070022;28;20214;-56
2022/06/07 03:42:43;;;;;;;1.20;1.10;;;;;22.10;100184.00;;;;2070900;28;20764;-58
2022/06/07 03:43:44;;;;;;;1.23;1.13;;;;;22.10;100190.00;;;;2075229;28;20217;-56
2022/06/07 03:44:50;;;;;;;1.43;1.30;;;;;22.10;100187.00;;;;2074585;28;20213;-56
2022/06/07 03:45:50;;;;;;;1.15;1.05;;;;;22.10;100181.00;;;;2062001;28;20706;-58
2022/06/07 03:46:53;;;;;;;2.30;1.23;;;;;22.20;100182.00;;;;2069826;28;20209;-58
2022/06/07 03:47:53;;;;;;;1.10;1.00;;;;;22.20;100178.00;;;;2070848;28;20296;-57
2022/06/07 03:48:54;;;;;;;1.10;1.00;;;;;22.20;100190.00;;;;2070883;28;20570;-58
2022/06/07 03:49:54;;;;;;;1.30;1.20;;;;;22.20;100178.00;;;;2061495;28;20719;-58
2022/06/07 03:50:55;;;;;;;1.70;1.07;;;;;22.10;100183.00;;;;2061974;28;20727;-57
2022/06/07 03:51:55;;;;;;;1.30;1.13;;;;;22.20;100183.00;;;;2077980;28;20213;-58
2022/06/07 03:52:56;;;;;;;1.67;1.30;;;;;22.20;100188.00;;;;2070877;28;20289;-58
2022/06/07 03:53:56;;;;;;;1.10;1.00;;;;;22.20;100182.00;;;;2070704;28;20283;-58
2022/06/07 03:54:57;;;;;;;1.30;1.20;;;;;22.20;100185.00;;;;2070830;28;20238;-56
2022/06/07 03:55:57;;;;;;;2.53;1.53;;;;;22.20;100182.00;;;;2070082;28;20249;-55
2022/06/07 03:56:57;;;;;;;1.40;1.20;;;;;22.20;100186.00;;;;2070635;28;20234;-57
2022/06/07 03:57:58;;;;;;;1.13;1.03;;;;;22.20;100181.00;;;;2061952;28;20774;-55
2022/06/07 03:58:58;;;;;;;1.50;1.03;;;;;22.20;100187.00;;;;2061544;28;20656;-55
2022/06/07 03:59:58;;;;;;;1.60;1.40;;;;;22.20;100182.00;;;;2070042;28;20248;-57
2022/06/07 04:00:59;;;;;;;1.30;1.10;;;;;22.20;100175.00;;;;2061825;28;20321;-57
2022/06/07 04:02:00;;;;;;;1.30;1.20;;;;;22.20;100184.00;;;;2061726;28;20223;-58
2022/06/07 04:03:00;;;;;;;1.80;1.20;;;;;22.20;100177.00;;;;2061115;28;21495;-59
2022/06/07 04:04:06;;;;;;;0.90;0.90;;;;;22.20;100186.00;;;;2070090;28;20245;-58
2022/06/07 04:05:07;;;;;;;1.23;1.10;;;;;22.20;100187.00;;;;2062138;28;21082;-58
2022/06/07 04:06:07;;;;;;;1.20;1.10;;;;;22.20;100194.00;;;;2068460;28;20218;-55
2022/06/07 04:08:26;;;;;;;1.15;1.05;;;;;22.20;100192.00;;;;2070477;28;20218;-58
2022/06/07 04:09:27;;;;;;;1.40;1.20;;;;;22.20;100188.00;;;;2069905;28;20226;-57
2022/06/07 04:10:27;;;;;;;1.33;1.23;;;;;22.20;100186.00;;;;2074327;28;20337;-58
2022/06/07 04:11:28;;;;;;;1.10;1.00;;;;;22.20;100189.00;;;;2078657;28;20206;-56
2022/06/07 04:12:28;;;;;;;2.00;1.00;;;;;22.20;100186.00;;;;2077945;28;20324;-56
2022/06/07 04:13:29;;;;;;;1.27;1.17;;;;;22.20;100179.00;;;;2069440;28;20713;-57
2022/06/07 04:14:30;;;;;;;1.30;1.20;;;;;22.20;100189.00;;;;2077804;28;20300;-57
2022/06/07 04:15:30;;;;;;;1.40;1.30;;;;;22.20;100185.00;;;;2085641;28;20669;-56
2022/06/07 04:16:31;;;;;;;1.30;1.00;;;;;22.20;100187.00;;;;2078190;28;20571;-57
2022/06/07 04:17:31;;;;;;;1.63;1.52;;;;;22.20;100192.00;;;;2069515;28;20569;-57
2022/06/07 04:18:32;;;;;;;1.20;1.07;;;;;22.20;100189.00;;;;2069912;28;20301;-57
2022/06/07 04:19:35;;;;;;;1.63;1.03;;;;;22.20;100190.00;;;;2077872;28;20736;-56
2022/06/07 04:20:36;;;;;;;1.30;1.20;;;;;22.20;100192.00;;;;2078529;28;20221;-57
2022/06/07 04:21:36;;;;;;;1.00;0.90;;;;;22.20;100193.00;;;;2078215;28;20662;-56
2022/06/07 04:22:36;;;;;;;0.93;0.90;;;;;22.20;100194.00;;;;2078333;28;20299;-57
2022/06/07 04:23:37;;;;;;;1.30;1.20;;;;;22.20;100175.00;;;;2078754;28;20224;-56
2022/06/07 04:24:37;;;;;;;1.30;1.20;;;;;22.20;100192.00;;;;2077780;28;20938;-55
2022/06/07 04:25:39;;;;;;;1.60;1.13;;;;;22.20;100196.00;;;;2077351;28;20221;-57
2022/06/07 04:26:39;;;;;;;1.00;0.90;;;;;22.20;100194.00;;;;2078607;28;20263;-57
2022/06/07 04:27:40;;;;;;;1.20;1.10;;;;;22.20;100196.00;;;;2078266;28;20263;-57
2022/06/07 04:28:40;;;;;;;1.27;1.17;;;;;22.20;100192.00;;;;2078536;28;20359;-57
2022/06/07 04:29:41;;;;;;;1.50;1.40;;;;;22.20;100195.00;;;;2078318;28;20212;-59
2022/06/07 04:30:45;;;;;;;1.27;1.17;;;;;22.20;100204.00;;;;2077799;28;20264;-56
2022/06/07 04:31:45;;;;;;;1.30;1.08;;;;;22.20;100185.00;;;;2077097;28;20213;-56
2022/06/07 04:32:47;;;;;;;1.20;1.10;;;;;22.20;100189.00;;;;2077832;28;20209;-57
2022/06/07 04:33:48;;;;;;;1.67;1.20;;;;;22.20;100191.00;;;;2061607;28;20257;-57
2022/06/07 04:34:48;;;;;;;1.03;0.93;;;;;22.20;100183.00;;;;2069779;28;20656;-57
2022/06/07 04:35:49;;;;;;;1.50;1.23;;;;;22.20;100184.00;;;;2076752;28;20220;-56
2022/06/07 04:36:49;;;;;;;1.07;0.90;;;;;22.20;100182.00;;;;2077590;28;20331;-57
2022/06/07 04:37:49;;;;;;;1.93;1.10;;;;;22.20;100180.00;;;;2078481;28;20201;-56
2022/06/07 04:38:50;;;;;;;1.30;1.00;;;;;22.20;100182.00;;;;2078511;28;20205;-58
2022/06/07 04:39:51;;;;;;;1.23;1.10;;;;;22.20;100184.00;;;;2077825;28;20286;-56
2022/06/07 04:40:51;;;;;;;1.43;1.27;;;;;22.20;100180.00;;;;2068160;28;20213;-57
2022/06/07 04:41:51;;;;;;;1.30;1.00;;;;;22.20;100185.00;;;;2078528;28;20233;-58
2022/06/07 04:42:52;;;;;;;1.07;0.90;;;;;22.20;100185.00;;;;2072979;28;20797;-58
2022/06/07 04:43:53;;;;;;;1.23;1.10;;;;;22.20;100188.00;;;;2070300;28;20733;-58
2022/06/07 04:44:53;;;;;;;1.37;0.93;;;;;22.20;100195.00;;;;2069529;28;20218;-56
2022/06/07 04:46:02;;;;;;;1.20;1.00;;;;;22.20;100164.00;;;;2069100;28;21004;-57
2022/06/07 04:47:03;;;;;;;1.25;1.13;;;;;22.20;100191.00;;;;2069797;28;20226;-58
2022/06/07 04:48:07;;;;;;;1.30;1.20;;;;;22.20;100192.00;;;;2069884;28;20677;-57
2022/06/07 04:49:07;;;;;;;0.77;0.75;;;;;22.20;100194.00;;;;2060927;28;20211;-54
2022/06/07 04:50:09;;;;;;;0.97;0.87;;;;;22.20;100192.00;;;;2059616;28;20217;-58
2022/06/07 04:51:18;;;;;;;1.40;1.30;;;;;22.20;100195.00;;;;2061685;28;20226;-57
2022/06/07 04:52:18;;;;;;;1.55;1.45;;;;;22.20;100186.00;;;;2053980;28;20227;-57
2022/06/07 04:53:19;;;;;;;1.10;0.90;;;;;22.20;100192.00;;;;2061518;28;20214;-58
2022/06/07 04:54:19;;;;;;;1.27;1.17;;;;;22.20;100191.00;;;;2070133;28;20356;-58
2022/06/07 04:55:20;;;;;;;1.10;1.00;;;;;22.20;100192.00;;;;2069037;28;20223;-58
2022/06/07 04:56:24;;;;;;;1.88;1.10;;;;;22.20;100196.00;;;;2067467;28;20233;-55
2022/06/07 04:57:25;;;;;;;1.30;1.20;;;;;22.20;100191.00;;;;2071533;28;20222;-58
2022/06/07 04:58:26;;;;;;;1.13;1.00;;;;;22.20;100205.00;;;;2077369;28;20231;-56
2022/06/07 04:59:26;;;;;;;1.43;1.10;;;;;22.20;100186.00;;;;2069423;28;20320;-56
2022/06/07 05:00:26;;;;;;;1.23;1.13;;;;;22.20;100194.00;;;;2069229;28;20272;-58
2022/06/07 05:01:37;;;;;;;1.30;1.17;;;;;22.20;100200.00;;;;2077448;28;20302;-59
2022/06/07 05:02:37;;;;;;;1.13;1.00;;;;;22.20;100197.00;;;;2077686;28;20225;-58
2022/06/07 05:03:38;;;;;;;1.00;0.90;;;;;22.20;100197.00;;;;2077630;28;20620;-56
2022/06/07 05:04:38;;;;;;;1.13;0.83;;;;;22.20;100195.00;;;;2077432;28;20279;-56
2022/06/07 05:05:38;;;;;;;1.23;0.97;;;;;22.20;100192.00;;;;2076661;28;20217;-57
2022/06/07 05:06:41;;;;;;;1.40;1.30;;;;;22.20;100199.00;;;;2077747;28;20609;-57
2022/06/07 05:07:41;;;;;;;1.20;1.10;;;;;22.20;100198.00;;;;2049779;28;20226;-56
2022/06/07 05:08:41;;;;;;;1.30;1.20;;;;;22.20;100194.00;;;;2053451;28;20242;-57
2022/06/07 05:09:42;;;;;;;1.17;1.07;;;;;22.20;100196.00;;;;2075648;28;20610;-58